Time;durP1;ratioP1;P1;durP2;ratioP2;P2;SDS_P1;SDS_P2;PMS_P1;PMS_P2;Temp;Humidity;BMP_temperature;BMP_pressure;BME280_temperature;BME280_humidity;BME280_pressure;Samples;Min_cycle;Max_cycle;Signal;HPM_P1;HPM_P2
2022/05/17 00:00:54;;;;;;;11.90;5.82;;;;;;;15.40;100.00;101652.88;6250033;28;20045;-72
2022/05/17 00:03:56;;;;;;;12.57;6.85;;;;;;;15.47;100.00;101648.06;6249901;28;20042;-74
2022/05/17 00:06:57;;;;;;;12.15;6.47;;;;;;;15.49;100.00;101651.50;6249822;28;20057;-72
2022/05/17 00:09:58;;;;;;;11.23;6.07;;;;;;;15.58;100.00;101655.38;6249866;28;20056;-72
2022/05/17 00:12:59;;;;;;;12.98;6.65;;;;;;;15.60;100.00;101661.44;6249902;28;20057;-72
2022/05/17 00:16:02;;;;;;;11.68;5.93;;;;;;;15.61;100.00;101656.03;6249460;28;20053;-72
2022/05/17 00:19:04;;;;;;;12.50;5.85;;;;;;;15.59;100.00;101657.94;6249738;28;20067;-72
2022/05/17 00:22:07;;;;;;;10.82;5.95;;;;;;;15.61;100.00;101658.69;6249507;28;20056;-73
2022/05/17 00:25:11;;;;;;;13.32;6.22;;;;;;;15.62;100.00;101656.88;6249514;28;20045;-73
2022/05/17 00:28:13;;;;;;;12.18;6.65;;;;;;;15.61;100.00;101657.84;6249466;28;20410;-73
2022/05/17 00:31:16;;;;;;;11.07;6.25;;;;;;;15.61;100.00;101658.69;6249271;28;20055;-72
2022/05/17 00:34:17;;;;;;;12.73;7.10;;;;;;;15.59;100.00;101659.75;6247833;28;20402;-73
2022/05/17 00:37:20;;;;;;;12.95;6.95;;;;;;;15.57;100.00;101651.88;6249342;28;20056;-72
2022/05/17 00:40:21;;;;;;;15.82;8.23;;;;;;;15.59;100.00;101657.94;6249060;28;20136;-72
2022/05/17 00:43:30;;;;;;;13.32;6.72;;;;;;;15.60;100.00;101656.13;6249139;28;20049;-73
2022/05/17 00:46:40;;;;;;;11.20;6.53;;;;;;;15.60;100.00;101651.69;6249146;28;20126;-73
2022/05/17 00:49:45;;;;;;;14.98;7.97;;;;;;;15.54;100.00;101645.91;6249006;28;20057;-73
2022/05/17 00:52:49;;;;;;;13.23;7.50;;;;;;;15.55;100.00;101651.13;6248710;28;20045;-73
2022/05/17 00:55:54;;;;;;;15.10;6.70;;;;;;;15.55;100.00;101643.16;6248722;28;20054;-73
2022/05/17 00:58:59;;;;;;;12.23;6.65;;;;;;;15.54;100.00;101644.13;6248423;28;20568;-73
2022/05/17 01:02:02;;;;;;;15.52;6.70;;;;;;;15.50;100.00;101636.44;6248660;28;20053;-73
2022/05/17 01:05:05;;;;;;;15.02;8.02;;;;;;;15.47;100.00;101640.13;6248601;28;20053;-73
2022/05/17 01:08:10;;;;;;;14.50;7.90;;;;;;;15.48;100.00;101637.38;6248633;28;20061;-73
2022/05/17 01:11:11;;;;;;;12.10;7.18;;;;;;;15.48;100.00;101637.38;6248484;28;20049;-73
2022/05/17 01:17:37;;;;;;;13.15;7.70;;;;;;;15.51;100.00;101641.66;6248645;28;20072;-74
2022/05/17 01:20:39;;;;;;;17.52;8.40;;;;;;;15.55;100.00;101639.69;6248413;28;20056;-73
2022/05/17 01:23:42;;;;;;;13.65;7.03;;;;;;;15.50;100.00;101639.94;6248294;28;20516;-73
2022/05/17 01:26:48;;;;;;;14.38;7.85;;;;;;;15.52;100.00;101638.03;6247319;28;20053;-73
2022/05/17 01:29:51;;;;;;;12.38;7.53;;;;;;;15.55;100.00;101635.22;6247465;28;20046;-73
2022/05/17 01:32:53;;;;;;;13.93;7.95;;;;;;;15.55;100.00;101632.56;6247838;28;20042;-73
2022/05/17 01:35:54;;;;;;;19.05;9.50;;;;;;;15.56;100.00;101625.47;6248149;28;20056;-73
2022/05/17 01:38:57;;;;;;;12.50;7.60;;;;;;;15.53;100.00;101626.50;6247863;28;20520;-73
2022/05/17 01:41:58;;;;;;;16.08;7.95;;;;;;;15.45;100.00;101629.63;6247685;28;20042;-73
2022/05/17 01:45:00;;;;;;;16.88;8.05;;;;;;;15.41;100.00;101627.25;6247348;28;20045;-73
2022/05/17 01:48:01;;;;;;;19.77;8.63;;;;;;;15.43;100.00;101628.00;6247539;28;20131;-73
2022/05/17 01:51:02;;;;;;;16.48;9.07;;;;;;;15.42;100.00;101621.00;6247625;28;20056;-73
2022/05/17 01:54:05;;;;;;;17.92;9.25;;;;;;;15.40;100.00;101620.25;6247104;28;20045;-73
2022/05/17 01:57:07;;;;;;;17.00;8.35;;;;;;;15.35;100.00;101617.88;6247529;28;20503;-73
2022/05/17 02:00:12;;;;;;;16.75;9.35;;;;;;;15.33;100.00;101617.09;6246659;28;20053;-73
2022/05/17 02:03:14;;;;;;;15.60;8.40;;;;;;;15.31;100.00;101616.34;6247313;28;20045;-73
2022/05/17 02:06:15;;;;;;;20.63;9.45;;;;;;;15.31;100.00;101616.34;6247085;28;20046;-73
2022/05/17 02:09:18;;;;;;;16.15;7.68;;;;;;;15.29;100.00;101614.72;6247462;28;20515;-74
2022/05/17 02:12:19;;;;;;;15.70;8.38;;;;;;;15.28;100.00;101618.31;6247039;28;20053;-73
2022/05/17 02:15:21;;;;;;;17.35;8.55;;;;;;;15.27;100.00;101619.28;6247052;28;20508;-73
2022/05/17 02:18:23;;;;;;;17.15;9.00;;;;;;;15.20;100.00;101616.97;6247085;28;20045;-73
2022/05/17 02:21:24;;;;;;;15.52;8.68;;;;;;;15.15;100.00;101621.69;6246787;28;20120;-73
2022/05/17 02:24:27;;;;;;;15.85;8.98;;;;;;;15.09;100.00;101616.75;6246780;28;20060;-73
2022/05/17 02:27:29;;;;;;;20.52;8.73;;;;;;;15.02;100.00;101617.19;6246133;28;20124;-73
2022/05/17 02:30:31;;;;;;;23.73;11.07;;;;;;;15.00;100.00;101629.69;6231441;28;20057;-73
2022/05/17 02:33:33;;;;;;;16.33;8.20;;;;;;;14.97;100.00;101615.66;6238100;28;20073;-73
2022/05/17 02:36:34;;;;;;;16.35;8.98;;;;;;;14.97;100.00;101618.31;6243617;28;20045;-73
2022/05/17 02:39:37;;;;;;;24.80;10.38;;;;;;;14.95;100.00;101622.00;6245378;28;20041;-73
2022/05/17 02:42:38;;;;;;;18.23;8.85;;;;;;;14.97;100.00;101630.69;6246728;28;20057;-73
2022/05/17 02:45:39;;;;;;;17.60;10.90;;;;;;;14.97;100.00;101628.03;6245797;28;20056;-73
2022/05/17 02:48:41;;;;;;;19.55;10.27;;;;;;;14.97;100.00;101633.34;6246758;28;20049;-73
2022/05/17 02:51:43;;;;;;;14.93;8.32;;;;;;;14.91;100.00;101626.63;6246232;28;20049;-73
2022/05/17 02:54:46;;;;;;;15.32;8.60;;;;;;;14.87;100.00;101640.13;6246373;28;20048;-73
2022/05/17 02:57:47;;;;;;;16.25;8.68;;;;;;;14.87;100.00;101638.31;6246222;28;20053;-73
2022/05/17 03:00:48;;;;;;;18.30;10.32;;;;;;;14.86;100.00;101644.56;6246374;28;20052;-73
2022/05/17 03:03:50;;;;;;;18.83;9.45;;;;;;;14.85;100.00;101640.22;6246246;28;20045;-73
2022/05/17 03:06:51;;;;;;;19.23;9.57;;;;;;;14.81;100.00;101643.97;6245990;28;20057;-73
2022/05/17 03:09:54;;;;;;;12.38;7.72;;;;;;;14.80;100.00;101657.25;6246339;28;20508;-73
2022/05/17 03:12:55;;;;;;;19.13;9.82;;;;;;;14.76;100.00;101655.72;6245788;28;20041;-72
2022/05/17 03:15:56;;;;;;;19.58;9.90;;;;;;;14.75;100.00;101660.16;6246030;28;20078;-74
2022/05/17 03:18:58;;;;;;;19.05;9.30;;;;;;;14.72;100.00;101655.06;6246116;28;20057;-73
2022/05/17 03:21:59;;;;;;;17.13;8.88;;;;;;;14.69;100.00;101661.38;6245813;28;20072;-74
2022/05/17 03:25:03;;;;;;;17.27;9.48;;;;;;;14.68;100.00;101659.69;6245909;28;20045;-74
2022/05/17 03:28:05;;;;;;;22.60;9.98;;;;;;;14.68;100.00;101670.25;6246198;28;20493;-73
2022/05/17 03:31:07;;;;;;;16.55;8.77;;;;;;;14.69;100.00;101676.41;6246001;28;20061;-73
2022/05/17 03:34:10;;;;;;;17.60;9.70;;;;;;;14.69;100.00;101669.31;6245497;28;20098;-73
2022/05/17 03:37:11;;;;;;;17.67;8.90;;;;;;;14.68;100.00;101669.41;6246063;28;20045;-74
2022/05/17 03:40:14;;;;;;;15.45;8.85;;;;;;;14.66;100.00;101672.13;6245557;28;20045;-73
2022/05/17 03:43:16;;;;;;;21.10;9.88;;;;;;;14.65;100.00;101678.34;6245809;28;20147;-73
2022/05/17 03:46:18;;;;;;;15.05;8.32;;;;;;;14.67;100.00;101679.13;6245670;28;20053;-74
2022/05/17 03:49:19;;;;;;;18.48;9.13;;;;;;;14.67;100.00;101681.78;6245826;28;20398;-73
2022/05/17 03:52:25;;;;;;;16.25;8.98;;;;;;;14.65;100.00;101680.16;6250149;28;20046;-73
2022/05/17 03:55:27;;;;;;;18.85;10.15;;;;;;;14.62;100.00;101682.97;6250170;28;20041;-73
2022/05/17 03:58:29;;;;;;;21.63;10.85;;;;;;;14.63;100.00;101679.41;6250044;28;20064;-73
2022/05/17 04:01:30;;;;;;;16.85;8.35;;;;;;;14.67;100.00;101683.53;6249990;28;20049;-73
2022/05/17 04:04:31;;;;;;;18.15;9.88;;;;;;;14.66;100.00;101679.19;6249852;28;20417;-73
2022/05/17 04:07:33;;;;;;;16.73;9.18;;;;;;;14.66;100.00;101679.19;6250086;28;20049;-73
2022/05/17 04:10:36;;;;;;;19.02;9.55;;;;;;;14.63;100.00;101679.41;6249965;28;20045;-73
2022/05/17 04:13:37;;;;;;;14.25;8.40;;;;;;;14.60;100.00;101677.75;6249965;28;20050;-74
2022/05/17 04:16:40;;;;;;;18.23;8.70;;;;;;;14.59;100.00;101681.34;6249770;28;20057;-73
2022/05/17 04:19:41;;;;;;;17.58;8.15;;;;;;;14.58;100.00;101684.94;6249682;28;20053;-73
2022/05/17 04:22:43;;;;;;;15.75;9.35;;;;;;;14.60;100.00;101685.69;6249908;28;20524;-73
2022/05/17 04:25:46;;;;;;;18.38;10.18;;;;;;;14.61;100.00;101684.75;6249394;28;20172;-73
2022/05/17 04:28:47;;;;;;;16.88;9.20;;;;;;;14.61;100.00;101687.41;6241907;28;20054;-73
2022/05/17 04:31:49;;;;;;;18.23;9.88;;;;;;;14.60;100.00;101684.84;6243541;28;20057;-73
2022/05/17 04:34:54;;;;;;;19.08;8.35;;;;;;;14.60;100.00;101688.34;6242425;28;20045;-73
2022/05/17 04:37:55;;;;;;;18.42;9.98;;;;;;;14.61;100.00;101690.03;6246995;28;20060;-73
2022/05/17 04:40:58;;;;;;;18.52;9.50;;;;;;;14.65;100.00;101691.59;6243341;28;20046;-74
2022/05/17 04:43:59;;;;;;;19.58;8.13;;;;;;;14.70;100.00;101691.31;6248997;28;20416;-73
2022/05/17 04:47:01;;;;;;;18.67;9.85;;;;;;;14.73;100.00;101704.41;6249266;28;20048;-73
2022/05/17 04:50:02;;;;;;;15.43;9.05;;;;;;;14.70;100.00;101705.41;6248943;28;20046;-73
2022/05/17 04:53:04;;;;;;;20.48;9.23;;;;;;;14.70;100.00;101696.63;6249013;28;20129;-73
2022/05/17 04:56:09;;;;;;;14.15;9.20;;;;;;;14.71;100.00;101707.09;6248754;28;20053;-73
2022/05/17 04:59:11;;;;;;;21.38;9.57;;;;;;;14.74;100.00;101707.91;6248448;28;20042;-73
2022/05/17 05:02:12;;;;;;;17.50;9.82;;;;;;;14.79;100.00;101714.63;6247374;28;20497;-72
2022/05/17 05:05:15;;;;;;;17.02;8.60;;;;;;;14.83;100.00;101710.03;6248398;28;20046;-72
2022/05/17 05:08:16;;;;;;;16.73;8.93;;;;;;;14.86;100.00;101716.00;6248710;28;20071;-72
2022/05/17 05:11:19;;;;;;;17.13;9.15;;;;;;;14.85;100.00;101710.78;6247728;28;20076;-73
2022/05/17 05:14:20;;;;;;;12.02;7.40;;;;;;;14.87;100.00;101720.34;6248417;28;20436;-73
2022/05/17 05:17:22;;;;;;;19.38;8.80;;;;;;;14.88;100.00;101723.84;6248354;28;20056;-73
2022/05/17 05:20:23;;;;;;;16.83;8.80;;;;;;;14.91;100.00;101718.41;6246748;28;20500;-72
2022/05/17 05:23:24;;;;;;;15.77;8.05;;;;;;;14.89;100.00;101726.41;6246636;28;20041;-72
2022/05/17 05:26:27;;;;;;;16.05;8.57;;;;;;;14.88;100.00;101726.50;6246717;28;20053;-72
2022/05/17 05:29:28;;;;;;;15.02;7.82;;;;;;;14.88;100.00;101723.84;6247972;28;20049;-72
2022/05/17 05:32:30;;;;;;;14.20;7.93;;;;;;;14.91;100.00;101729.84;6247625;28;20053;-73
2022/05/17 05:35:32;;;;;;;15.68;8.77;;;;;;;14.92;100.00;101731.53;6247863;28;20057;-73
2022/05/17 05:38:34;;;;;;;12.98;7.00;;;;;;;14.91;100.00;101729.00;6247881;28;20192;-73
2022/05/17 05:41:37;;;;;;;16.95;8.68;;;;;;;14.92;100.00;101723.59;6247164;28;20060;-73
2022/05/17 05:44:39;;;;;;;14.50;6.95;;;;;;;14.93;100.00;101732.38;6245571;28;20451;-72
2022/05/17 05:47:40;;;;;;;19.15;9.02;;;;;;;14.91;100.00;101729.00;6246438;28;20056;-72
2022/05/17 05:50:42;;;;;;;18.10;9.73;;;;;;;14.87;100.00;101724.81;6246244;28;20508;-72
2022/05/17 05:53:43;;;;;;;19.15;7.82;;;;;;;14.86;100.00;101738.97;6245914;28;20061;-72
2022/05/17 05:56:46;;;;;;;18.52;8.48;;;;;;;14.85;100.00;101737.25;6246073;28;20053;-72
2022/05/17 05:59:47;;;;;;;16.50;7.38;;;;;;;14.83;100.00;101744.44;6245359;28;20060;-73
2022/05/17 06:02:48;;;;;;;14.90;8.13;;;;;;;14.84;100.00;101743.50;6246888;28;20057;-72
2022/05/17 06:05:50;;;;;;;18.38;7.80;;;;;;;14.82;100.00;101740.09;6246987;28;20180;-72
2022/05/17 06:08:51;;;;;;;16.15;8.90;;;;;;;14.83;100.00;101744.44;6247461;28;20512;-72
2022/05/17 06:11:54;;;;;;;15.48;8.65;;;;;;;14.84;100.00;101746.13;6247077;28;20054;-73
2022/05/17 06:14:56;;;;;;;14.48;7.38;;;;;;;14.86;100.00;101746.91;6246953;28;20052;-72
2022/05/17 06:18:01;;;;;;;13.68;7.95;;;;;;;14.92;100.00;101750.06;6247007;28;20160;-72
2022/05/17 06:21:03;;;;;;;16.10;8.23;;;;;;;14.94;100.00;101749.97;6236574;28;20056;-73
2022/05/17 06:24:06;;;;;;;16.63;8.18;;;;;;;14.99;100.00;101745.31;6231788;28;20068;-73
2022/05/17 06:27:08;;;;;;;14.88;8.60;;;;;;;15.02;100.00;101744.25;6246273;28;20053;-73
2022/05/17 06:30:11;;;;;;;13.02;7.32;;;;;;;15.09;100.00;101749.13;6239173;28;20050;-72
2022/05/17 06:33:15;;;;;;;15.75;8.02;;;;;;;15.18;100.00;101753.91;6234072;28;20049;-72
2022/05/17 06:36:16;;;;;;;14.55;7.25;;;;;;;15.22;100.00;101746.66;6245717;28;20053;-73
2022/05/17 06:39:18;;;;;;;14.75;6.97;;;;;;;15.27;100.00;101743.75;6245090;28;20049;-72
2022/05/17 06:42:20;;;;;;;16.55;7.05;;;;;;;15.38;100.00;101746.63;6245292;28;20072;-73
2022/05/17 06:45:22;;;;;;;11.80;7.03;;;;;;;15.41;100.00;101744.66;6244408;28;20041;-73
2022/05/17 06:48:23;;;;;;;12.48;7.00;;;;;;;15.49;100.00;101749.50;6244841;28;20421;-73
2022/05/17 06:51:24;;;;;;;15.95;6.68;;;;;;;15.57;100.00;101757.84;6244759;28;20049;-73
2022/05/17 06:54:26;;;;;;;11.10;5.63;;;;;;;15.58;100.00;101756.94;6244792;28;20425;-73
2022/05/17 06:57:28;;;;;;;15.90;7.50;;;;;;;15.62;100.00;101758.44;6245774;28;20049;-73
2022/05/17 07:00:32;;;;;;;13.25;6.50;;;;;;;15.72;100.00;101762.31;6246153;28;20790;-72
2022/05/17 07:03:33;;;;;;;17.75;6.10;;;;;;;15.81;100.00;101754.75;6245960;28;20045;-73
2022/05/17 07:06:35;;;;;;;9.45;4.72;;;;;;;15.85;100.00;101758.91;6245805;28;20049;-73
2022/05/17 07:09:37;;;;;;;10.93;5.72;;;;;;;15.90;100.00;101763.03;6246410;28;20053;-73
2022/05/17 07:15:59;;;;;;;10.63;4.90;;;;;;;16.02;100.00;101763.22;6246142;28;20132;-73
2022/05/17 07:19:01;;;;;;;11.68;5.00;;;;;;;16.03;100.00;101763.13;6246192;28;20049;-73
2022/05/17 07:22:03;;;;;;;7.53;3.97;;;;;;;16.09;100.00;101769.88;6246088;28;20451;-75
2022/05/17 07:25:05;;;;;;;10.32;4.18;;;;;;;16.12;100.00;101767.88;6247206;28;20046;-73
2022/05/17 07:28:09;;;;;;;12.90;4.45;;;;;;;16.13;100.00;101772.25;6250654;28;20056;-73
2022/05/17 07:31:12;;;;;;;12.23;4.53;;;;;;;16.12;100.00;101772.31;6244584;28;20045;-72
2022/05/17 07:34:13;;;;;;;10.38;4.07;;;;;;;16.10;100.00;101780.38;6245272;28;20045;-73
2022/05/17 07:37:15;;;;;;;5.68;3.50;;;;;;;16.24;100.00;101776.91;6250571;28;20128;-73
2022/05/17 07:40:17;;;;;;;9.85;4.45;;;;;;;16.30;100.00;101775.66;6250396;28;20053;-73
2022/05/17 07:43:21;;;;;;;6.50;3.85;;;;;;;16.38;100.00;101781.34;6250540;28;20571;-73
2022/05/17 07:46:22;;;;;;;9.05;4.35;;;;;;;16.42;100.00;101780.22;6250625;28;20045;-73
2022/05/17 07:49:23;;;;;;;10.00;3.53;;;;;;;16.47;100.00;101775.47;6250575;28;20046;-73
2022/05/17 07:52:25;;;;;;;11.32;4.18;;;;;;;16.54;100.00;101778.63;6250376;28;20774;-72
2022/05/17 07:55:26;;;;;;;6.72;3.42;;;;;;;16.62;100.00;101774.56;6250286;28;20053;-73
2022/05/17 07:58:29;;;;;;;9.77;3.92;;;;;;;16.63;100.00;101778.91;6249858;28;20053;-74
2022/05/17 08:01:30;;;;;;;5.53;3.58;;;;;;;16.69;100.00;101773.22;6249841;28;20053;-72
2022/05/17 08:04:31;;;;;;;7.88;3.67;;;;;;;16.76;100.00;101784.34;6249579;28;20057;-73
2022/05/17 08:07:33;;;;;;;6.35;4.18;;;;;;;16.80;100.00;101788.47;6250189;28;20049;-73
2022/05/17 08:10:34;;;;;;;5.78;3.88;;;;;;;16.87;100.00;101787.16;6249746;28;20061;-74
2022/05/17 08:13:37;;;;;;;4.55;2.63;;;;;;;17.01;100.00;101796.91;6250199;28;20049;-72
2022/05/17 08:16:40;;;;;;;6.68;3.97;;;;;;;17.14;100.00;101803.16;6249566;28;20060;-72
2022/05/17 08:19:41;;;;;;;7.07;3.60;;;;;;;17.34;100.00;101801.00;6240448;28;20057;-72
2022/05/17 08:22:44;;;;;;;6.45;3.47;;;;;;;17.51;100.00;101806.06;6235695;28;20045;-72
2022/05/17 08:29:05;;;;;;;12.43;3.10;;;;;;;17.55;100.00;101798.75;6249606;28;20058;-72
2022/05/17 08:35:26;;;;;;;9.90;3.65;;;;;;;17.70;100.00;101795.91;6249055;28;20132;-72
2022/05/17 08:38:30;;;;;;;10.70;3.38;;;;;;;17.69;100.00;101806.66;6249323;28;20068;-72
2022/05/17 08:41:38;;;;;;;6.15;2.85;;;;;;;17.82;100.00;101804.06;6249078;28;20057;-72
2022/05/17 08:44:45;;;;;;;6.70;3.22;;;;;;;17.87;100.00;101801.97;6248933;28;20054;-71
2022/05/17 08:47:51;;;;;;;10.73;3.15;;;;;;;17.87;100.00;101813.44;6249101;28;20058;-72
2022/05/17 08:50:53;;;;;;;5.35;2.22;;;;;;;17.85;100.00;101811.84;6249407;28;20133;-72
2022/05/17 08:53:54;;;;;;;4.00;2.13;;;;;;;17.84;100.00;101818.97;6248686;28;20053;-71
2022/05/17 08:57:02;;;;;;;5.80;2.75;;;;;;;17.86;100.00;101811.75;6248677;28;20505;-72
2022/05/17 09:00:09;;;;;;;8.13;3.35;;;;;;;17.88;100.00;101820.47;6248709;28;20049;-72
2022/05/17 09:03:26;;;;;;;5.82;2.72;;;;;;;17.86;100.00;101806.44;6248729;28;20060;-72
2022/05/17 09:06:36;;;;;;;3.88;2.17;;;;;;;17.97;100.00;101811.00;6248628;28;20045;-71
2022/05/17 09:09:51;;;;;;;5.97;2.25;;;;;;;18.15;100.00;101812.44;6247782;28;20049;-71
2022/05/17 09:13:00;;;;;;;7.40;3.10;;;;;;;18.31;100.00;101809.59;6248027;28;20060;-72
2022/05/17 09:16:03;;;;;;;3.22;1.90;;;;;;;18.22;100.00;101807.56;6248064;28;20049;-71
2022/05/17 09:19:04;;;;;;;5.47;2.20;;;;;;;18.31;100.00;101809.59;6248570;28;20049;-72
2022/05/17 09:22:06;;;;;;;4.55;2.28;;;;;;;18.46;100.00;101823.63;6248225;28;20045;-71
2022/05/17 09:25:16;;;;;;;5.05;2.85;;;;;;;18.54;100.00;101823.97;6248247;28;20080;-72
2022/05/17 09:28:21;;;;;;;5.45;2.97;;;;;;;18.59;100.00;101818.31;6245377;28;20053;-71
2022/05/17 09:31:31;;;;;;;5.15;1.90;;;;;;;18.63;100.00;101819.81;6242998;28;20048;-72
2022/05/17 09:34:36;;;;;;;3.05;1.95;;;;;;;18.73;100.00;101812.91;6248077;28;20049;-71
2022/05/17 09:37:41;;;;;;;3.42;2.05;;;;;;;18.83;100.00;101826.41;6248497;28;20136;-71
2022/05/17 09:40:49;;;;;;;3.00;1.92;;;;;;;18.99;100.00;101816.38;6247501;28;20390;-72
2022/05/17 09:43:52;;;;;;;5.72;2.20;;;;;;;19.08;98.80;101825.53;6247662;28;20049;-72
2022/05/17 09:47:00;;;;;;;2.83;2.28;;;;;;;19.12;98.48;101824.31;6247836;28;20048;-72
2022/05/17 09:53:21;;;;;;;3.78;1.80;;;;;;;19.29;100.00;101821.28;6204181;28;20053;-71
2022/05/17 09:56:26;;;;;;;5.40;2.13;;;;;;;19.18;99.01;101827.41;6247375;28;20061;-71
2022/05/17 09:59:28;;;;;;;8.55;2.17;;;;;;;19.21;100.00;101829.84;6247292;28;20052;-73
2022/05/17 10:02:41;;;;;;;3.40;1.95;;;;;;;19.29;98.58;101825.75;6246838;28;20093;-71
2022/05/17 10:05:47;;;;;;;5.88;1.50;;;;;;;19.33;99.44;101821.91;6247429;28;20045;-71
2022/05/17 10:09:00;;;;;;;2.47;1.80;;;;;;;19.45;100.00;101826.34;6247489;28;20535;-72
2022/05/17 10:12:08;;;;;;;3.25;1.80;;;;;;;19.44;99.72;101819.28;6247294;28;20520;-72
2022/05/17 10:15:12;;;;;;;1.73;1.50;;;;;;;19.59;95.98;101820.00;6247040;28;20045;-73
2022/05/17 10:18:30;;;;;;;2.92;1.58;;;;;;;19.61;92.19;101810.94;6247273;28;20096;-72
2022/05/17 10:21:38;;;;;;;4.63;1.85;;;;;;;19.75;88.70;101825.91;6243384;28;20139;-72
2022/05/17 10:24:46;;;;;;;2.95;1.50;;;;;;;19.74;90.00;101821.53;6246919;28;20057;-72
2022/05/17 10:27:52;;;;;;;3.60;1.55;;;;;;;19.70;87.39;101818.25;6246823;28;20417;-72
2022/05/17 10:30:58;;;;;;;4.95;1.65;;;;;;;19.58;82.14;101804.97;6246566;28;20472;-73
2022/05/17 10:34:10;;;;;;;3.08;1.38;;;;;;;19.69;86.28;101811.22;6246625;28;20060;-72
2022/05/17 10:37:16;;;;;;;2.53;1.80;;;;;;;19.82;81.68;101810.31;6247069;28;20128;-73
2022/05/17 10:40:21;;;;;;;3.25;1.30;;;;;;;19.89;83.58;101820.38;6246501;28;20053;-72
2022/05/17 10:43:26;;;;;;;1.88;1.25;;;;;;;20.05;84.33;101812.06;6246724;28;20052;-73
2022/05/17 10:46:31;;;;;;;3.55;1.42;;;;;;;20.25;82.91;101813.22;6246530;28;20417;-73
2022/05/17 10:49:45;;;;;;;1.92;1.25;;;;;;;20.42;86.20;101814.56;6247233;28;20068;-74
2022/05/17 10:52:58;;;;;;;4.65;1.52;;;;;;;20.66;80.59;101811.81;6246492;28;20417;-72
2022/05/17 10:56:11;;;;;;;4.00;1.60;;;;;;;20.57;79.07;101816.06;6246162;28;20111;-71
2022/05/17 10:59:27;;;;;;;2.97;1.45;;;;;;;20.62;82.02;101813.03;6246563;28;20516;-72
2022/05/17 11:02:54;;;;;;;4.68;1.33;;;;;;;20.76;78.11;101811.00;6251201;28;20053;-73
2022/05/17 11:06:12;;;;;;;7.50;1.48;;;;;;;20.91;78.32;101806.25;6251239;28;20046;-72
2022/05/17 11:09:21;;;;;;;3.40;1.88;;;;;;;21.08;74.80;101817.41;6251411;28;20057;-71
2022/05/17 11:12:28;;;;;;;4.47;1.60;;;;;;;21.24;72.65;101817.84;6251214;28;20053;-72
2022/05/17 11:15:35;;;;;;;6.35;1.45;;;;;;;21.31;75.08;101812.88;6251088;28;20493;-72
2022/05/17 11:18:42;;;;;;;3.47;1.42;;;;;;;21.48;72.94;101805.19;6251536;28;20515;-71
2022/05/17 11:21:52;;;;;;;3.20;1.60;;;;;;;21.81;68.43;101803.34;6251158;28;20092;-71
2022/05/17 11:25:08;;;;;;;;;;;;;;;21.94;69.80;101797.81;6251222;28;20386;-71
2022/05/17 11:28:54;;;;;;;1.77;1.00;;;;;;;22.37;69.48;101791.47;6229523;28;20036;-72
2022/05/17 11:31:58;;;;;;;1.70;0.70;;;;;;;22.79;66.04;101792.22;6246722;28;20056;-73
2022/05/17 11:35:02;;;;;;;2.00;1.58;;;;;;;22.56;64.16;101791.56;6249555;28;20049;-71
2022/05/17 11:38:07;;;;;;;3.58;0.98;;;;;;;21.96;71.41;101787.81;6242670;28;20041;-72
2022/05/17 11:41:15;;;;;;;1.67;1.30;;;;;;;21.91;68.61;101787.38;6247960;28;20045;-72
2022/05/17 11:44:26;;;;;;;2.85;1.20;;;;;;;22.72;69.05;101786.56;6250677;28;20425;-73
2022/05/17 11:47:31;;;;;;;4.18;1.20;;;;;;;23.36;63.34;101784.50;6250853;28;20050;-71
2022/05/17 11:50:45;;;;;;;5.22;1.48;;;;;;;23.68;65.17;101782.41;6242390;28;20049;-74
2022/05/17 11:53:49;;;;;;;1.10;0.95;;;;;;;23.10;63.34;101789.53;6231779;28;20493;-72
2022/05/17 11:56:51;;;;;;;3.78;1.85;;;;;;;23.09;63.88;101772.59;6250183;28;20046;-72
2022/05/17 11:59:55;;;;;;;5.07;1.15;;;;;;;23.31;61.81;101774.19;6241377;28;20081;-71
2022/05/17 12:02:59;;;;;;;1.90;1.52;;;;;;;23.75;57.24;101780.88;6250400;28;20057;-72
2022/05/17 12:06:01;;;;;;;2.40;1.08;;;;;;;23.75;57.17;101780.00;6249820;28;20056;-72
2022/05/17 12:09:06;;;;;;;2.83;1.10;;;;;;;23.09;58.48;101775.28;6249990;28;20057;-73
2022/05/17 12:12:24;;;;;;;2.63;1.02;;;;;;;23.00;59.85;101776.09;6248735;28;20049;-72
2022/05/17 12:15:37;;;;;;;1.85;1.08;;;;;;;23.48;55.58;101780.66;6247898;28;20048;-74
2022/05/17 12:18:44;;;;;;;4.45;1.20;;;;;;;23.45;56.52;101776.44;6247903;28;20060;-72
2022/05/17 12:21:56;;;;;;;3.25;1.10;;;;;;;22.98;54.23;101772.69;6248156;28;20497;-72
2022/05/17 12:25:07;;;;;;;2.72;0.82;;;;;;;23.25;54.65;101764.84;6246396;28;20045;-73
2022/05/17 12:28:11;;;;;;;1.83;0.95;;;;;;;23.23;55.47;101761.47;6245787;28;20705;-73
2022/05/17 12:31:16;;;;;;;3.75;1.33;;;;;;;23.68;52.41;101769.00;6245189;28;20050;-73
2022/05/17 12:34:21;;;;;;;1.25;0.90;;;;;;;24.15;53.66;101761.00;6247796;28;20049;-75
2022/05/17 12:37:27;;;;;;;4.60;1.20;;;;;;;24.60;49.76;101765.66;6247870;28;20489;-73
2022/05/17 12:43:52;;;;;;;1.00;0.80;;;;;;;24.98;49.60;101761.06;6224437;28;20050;-71
2022/05/17 12:46:57;;;;;;;4.03;1.30;;;;;;;24.96;46.25;101774.69;6225139;28;20406;-72
2022/05/17 12:49:59;;;;;;;1.63;0.80;;;;;;;25.29;50.25;101762.44;6224393;28;20169;-73
2022/05/17 12:53:01;;;;;;;1.48;0.80;;;;;;;25.03;44.31;101762.34;6224866;28;20050;-73
2022/05/17 12:56:07;;;;;;;3.25;0.90;;;;;;;24.92;49.28;101765.22;6230898;28;20413;-73
2022/05/17 12:59:09;;;;;;;4.22;1.02;;;;;;;24.47;46.10;101754.41;6249154;28;20057;-73
2022/05/17 13:02:10;;;;;;;1.55;0.90;;;;;;;23.88;46.75;101752.84;6248567;28;20057;-73
2022/05/17 13:05:32;;;;;;;1.33;0.80;;;;;;;23.87;45.23;101760.06;6248812;28;20045;-73
2022/05/17 13:08:37;;;;;;;2.50;1.00;;;;;;;24.15;49.49;101749.41;6248719;28;20125;-73
2022/05/17 13:11:39;;;;;;;2.80;0.90;;;;;;;25.14;47.26;101749.69;6248827;28;20052;-73
2022/05/17 13:14:41;;;;;;;2.53;1.00;;;;;;;25.30;44.53;101736.41;6248438;28;20049;-73
2022/05/17 13:17:43;;;;;;;1.95;0.80;;;;;;;25.09;44.38;101743.91;6248181;28;20045;-73
2022/05/17 13:20:48;;;;;;;1.88;0.63;;;;;;;25.24;42.02;101742.38;6248456;28;20136;-73
2022/05/17 13:23:51;;;;;;;3.60;0.65;;;;;;;25.49;43.37;101751.53;6247665;28;20100;-73
2022/05/17 13:26:58;;;;;;;5.07;0.90;;;;;;;25.81;43.03;101748.31;6248431;28;20092;-73
2022/05/17 13:30:03;;;;;;;2.08;0.85;;;;;;;25.51;42.51;101742.28;6248051;28;20412;-73
2022/05/17 13:33:09;;;;;;;0.95;0.60;;;;;;;25.61;42.94;101744.06;6248175;28;20057;-73
2022/05/17 13:36:13;;;;;;;1.27;0.63;;;;;;;25.60;38.97;101740.53;6248148;28;20045;-72
2022/05/17 13:39:25;;;;;;;2.65;0.80;;;;;;;25.23;43.25;101738.00;6247635;28;20053;-73
2022/05/17 13:42:30;;;;;;;1.33;0.60;;;;;;;25.49;40.89;101743.47;6247912;28;20041;-73
2022/05/17 13:45:34;;;;;;;3.15;0.63;;;;;;;25.85;39.51;101733.53;6247328;28;20056;-73
2022/05/17 13:48:39;;;;;;;2.28;0.88;;;;;;;25.96;38.36;101735.94;6247995;28;20072;-72
2022/05/17 13:51:44;;;;;;;1.73;0.55;;;;;;;26.09;36.04;101732.81;6239285;28;20057;-72
2022/05/17 13:54:53;;;;;;;3.60;0.70;;;;;;;26.23;37.72;101739.47;6238506;28;20532;-73
2022/05/17 13:57:58;;;;;;;4.40;0.60;;;;;;;26.49;35.99;101740.31;6247321;28;20132;-74
2022/05/17 14:01:09;;;;;;;2.42;0.85;;;;;;;26.46;34.01;101748.72;6247373;28;20052;-73
2022/05/17 14:04:13;;;;;;;2.25;0.70;;;;;;;26.30;32.59;101743.22;6247618;28;20049;-73
2022/05/17 14:07:24;;;;;;;1.58;0.57;;;;;;;26.29;30.84;101736.97;6247344;28;20045;-73
2022/05/17 14:13:49;;;;;;;1.42;0.65;;;;;;;25.91;34.26;101722.09;6247424;28;20049;-72
2022/05/17 14:16:54;;;;;;;1.30;0.80;;;;;;;25.86;36.51;101727.13;6247202;28;20497;-75
2022/05/17 14:19:58;;;;;;;1.23;0.68;;;;;;;25.85;33.49;101730.00;6247213;28;20053;-73
2022/05/17 14:23:00;;;;;;;1.13;0.60;;;;;;;25.87;32.60;101727.97;6247227;28;20061;-74
2022/05/17 14:26:02;;;;;;;1.20;0.40;;;;;;;25.96;32.76;101719.78;6237015;28;20045;-74